Alcalde, NM (87511)

4:31 AM MDT on September 23, 2014 (GMT -0600)
Fairview- Prof D | Change Station
CLOSE
Current Station
Personal Weather Station
Location: Espanola, NM
Elevation: 5670 ft
Nearby Weather Stations

Elev 5670 ft 36.00 °N, 106.05 °W | Updated 19 seconds ago

Mostly Cloudy
Mostly Cloudy
56.8 °F
Feels Like 56.8 °F
N
0.0
Wind Variable Wind from WSW
Gusts 0.0 mph

Today
High -- | Low -- °F
--% Chance of Precip.
Yesterday
High -- | Low -- °F
Precip. -- in
6:52 AM 6:59 PM
Waning Crescent, 1% visible
Pressure 30.34 in
Visibility 10.0 miles
Clouds Scattered Clouds 200 ft
Scattered Clouds 9500 ft
Dew Point 54 °F
Humidity 91%
Rainfall 0.00 in
Snow Depth 3 in , 0 in , 0 in
UV 0 out of 12
Pollen 2.60 out of 12
Air Quality Not available.
Flu Activity Not available.
METAR KLAM 231015Z AUTO 17005KT 10SM SCT002 SCT095 14/13 A3034 RMK AO2 T01350131

More Conditions Fewer Conditions

Pressure 30.34 in
Visibility 10.0 miles
Clouds Scattered Clouds 200 ft
Scattered Clouds 9500 ft
Dew Point 54 °F
Humidity 91%
Rainfall 0.00 in
Snow Depth 3 in , 0 in , 0 in
UV 0 out of 12
Pollen 2.60 out of 12
Air Quality Not available.
Flu Activity Not available.
METAR KLAM 231015Z AUTO 17005KT 10SM SCT002 SCT095 14/13 A3034 RMK AO2 T01350131

More Conditions Fewer Conditions

10-Day Weather Forecast

Almanac

Astronomy

Sep. 23, 2014 Rise Set
Actual Time 6:52 AM MDT 6:59 PM MDT
Civil Twilight 6:27 AM MDT 7:25 PM MDT
Nautical Twilight 5:57 AM MDT 7:54 PM MDT
Astronomical Twilight 5:27 AM MDT 8:25 PM MDT
Moon 6:20 AM MDT 6:40 PM MDT
Length of Visible Light 12h 57m
Length of Day
12h 06m
Tomorrow will be 2m 16s shorter.
Waning Crescent, 1% of the Moon is Illuminated
Today
Waning Crescent
Sep 24
New
Oct 1
First Quarter
Oct 8
Full
Oct 15
Last Quarter

Today's Extremes

State Highs State Lows

Community

WunderPhotos

Upload Photos

1,755,645 photos uploaded!

Nearby

Snow Depth

Station Depth Elevation
Wesner Springs 3 in 11120 ft
Gallegos Peak 0 in 9800 ft
Red River Pass #2 0 in 9850 ft
McKnight Cabin 0 in 9240 ft
Silver Creek Divide 1 in 9000 ft

Earthquake Activity

City Distance Mag. Time & Date
No recent earthquake activity has been reported nearby.
Minimum magnitude displayed is 2.5.

Coastal Water Temperatures

Place Temperature
No Stations Reporting

Nearby Weather Stations